createdAt,value
2023-04-10T00:00:21.238Z, 44.74
2023-04-10T00:01:21.293Z, 44.75
2023-04-10T00:02:21.371Z, 44.75
2023-04-10T00:03:21.459Z, 44.79
2023-04-10T00:04:21.389Z, 44.72
2023-04-10T00:05:21.336Z, 44.69
2023-04-10T00:06:21.303Z, 44.69
2023-04-10T00:07:21.359Z, 44.64
2023-04-10T00:08:21.336Z, 44.65
2023-04-10T00:09:21.359Z, 44.59
2023-04-10T00:10:21.344Z, 44.59
2023-04-10T00:11:21.396Z, 44.52
2023-04-10T00:12:21.379Z, 44.44
2023-04-10T00:13:21.386Z, 44.51
2023-04-10T00:14:21.377Z, 44.50
2023-04-10T00:15:21.414Z, 44.44
2023-04-10T00:16:21.478Z, 44.38
2023-04-10T00:17:21.489Z, 44.41
2023-04-10T00:18:21.517Z, 44.41
2023-04-10T00:19:21.471Z, 44.34
2023-04-10T00:20:21.513Z, 44.27
2023-04-10T00:21:21.497Z, 44.28
2023-04-10T00:22:21.487Z, 44.26
2023-04-10T00:23:21.493Z, 44.32
2023-04-10T00:24:21.537Z, 44.18
2023-04-10T00:25:21.539Z, 44.14
2023-04-10T00:26:21.521Z, 44.18
2023-04-10T00:27:21.537Z, 44.18
2023-04-10T00:28:21.562Z, 44.20
2023-04-10T00:29:21.581Z, 44.22
2023-04-10T00:30:21.568Z, 44.14
2023-04-10T00:31:21.604Z, 44.12
2023-04-10T00:32:21.720Z, 44.07
2023-04-10T00:33:21.706Z, 44.02
2023-04-10T00:34:21.684Z, 44.00
2023-04-10T00:35:21.668Z, 43.98
2023-04-10T00:36:21.772Z, 43.98
2023-04-10T00:37:21.689Z, 43.99
2023-04-10T00:38:21.697Z, 43.90
2023-04-10T00:39:21.698Z, 43.84
2023-04-10T00:40:21.688Z, 43.86
2023-04-10T00:41:21.701Z, 43.88
2023-04-10T00:42:21.693Z, 43.89
2023-04-10T00:43:21.731Z, 43.78
2023-04-10T00:44:21.744Z, 43.79
2023-04-10T00:45:21.834Z, 43.80
2023-04-10T00:46:21.833Z, 43.75
2023-04-10T00:47:21.873Z, 43.73
2023-04-10T00:48:21.814Z, 43.63
2023-04-10T00:49:21.897Z, 43.57
2023-04-10T00:50:21.876Z, 43.63
2023-04-10T00:51:21.872Z, 43.70
2023-04-10T00:52:21.871Z, 43.75
2023-04-10T00:53:21.871Z, 43.69
2023-04-10T00:54:21.885Z, 43.63
2023-04-10T00:55:21.906Z, 43.62
2023-04-10T00:56:21.904Z, 43.60
2023-04-10T00:57:21.915Z, 43.59
2023-04-10T00:58:21.931Z, 43.54
2023-04-10T00:59:21.923Z, 43.46
2023-04-10T01:00:21.930Z, 43.47
2023-04-10T01:01:22.063Z, 43.41
2023-04-10T01:02:22.090Z, 43.44
2023-04-10T01:03:22.180Z, 43.42
2023-04-10T01:04:22.208Z, 43.41
2023-04-10T01:05:22.003Z, 43.37
2023-04-10T01:06:22.076Z, 43.39
2023-04-10T01:07:22.032Z, 43.38
2023-04-10T01:08:22.124Z, 43.32
2023-04-10T01:09:22.091Z, 43.35
2023-04-10T01:10:22.078Z, 43.27
2023-04-10T01:11:22.102Z, 43.22
2023-04-10T01:12:22.097Z, 43.17
2023-04-10T01:13:22.177Z, 43.15
2023-04-10T01:14:22.143Z, 43.21
2023-04-10T01:15:22.212Z, 43.22
2023-04-10T01:16:22.217Z, 43.18
2023-04-10T01:17:22.253Z, 43.22
2023-04-10T01:18:22.196Z, 43.17
2023-04-10T01:19:22.186Z, 43.12
2023-04-10T01:20:22.262Z, 43.08
2023-04-10T01:21:22.221Z, 43.06
2023-04-10T01:22:22.277Z, 42.98
2023-04-10T01:23:22.252Z, 42.92
2023-04-10T01:24:22.276Z, 42.90
2023-04-10T01:25:22.268Z, 42.94
2023-04-10T01:26:22.295Z, 42.93
2023-04-10T01:27:22.341Z, 42.94
2023-04-10T01:28:22.345Z, 43.00
2023-04-10T01:29:22.343Z, 42.93
2023-04-10T01:30:22.362Z, 42.90
2023-04-10T01:31:22.472Z, 42.89
2023-04-10T01:32:22.448Z, 42.80
2023-04-10T01:33:22.396Z, 42.78
2023-04-10T01:34:22.438Z, 42.76
2023-04-10T01:35:22.461Z, 42.72
2023-04-10T01:36:22.417Z, 42.69
2023-04-10T01:37:22.482Z, 42.65
2023-04-10T01:38:22.449Z, 42.66
2023-04-10T01:39:22.455Z, 42.66
2023-04-10T01:40:22.463Z, 42.68
2023-04-10T01:41:22.470Z, 42.65
2023-04-10T01:42:22.488Z, 42.63
2023-04-10T01:43:22.501Z, 42.60
2023-04-10T01:44:22.594Z, 42.61
2023-04-10T01:45:22.565Z, 42.61
2023-04-10T01:46:22.653Z, 42.57
2023-04-10T01:47:22.617Z, 42.52
2023-04-10T01:48:22.621Z, 42.54
2023-04-10T01:49:22.605Z, 42.59
2023-04-10T01:50:22.635Z, 42.59
2023-04-10T01:51:22.630Z, 42.48
2023-04-10T01:52:22.626Z, 42.42
2023-04-10T01:53:22.654Z, 42.40
2023-04-10T01:54:22.627Z, 42.44
2023-04-10T01:55:22.697Z, 42.39
2023-04-10T01:56:22.702Z, 42.36
2023-04-10T01:57:22.723Z, 42.37
2023-04-10T01:58:22.712Z, 42.31
2023-04-10T01:59:22.746Z, 42.28
2023-04-10T02:00:22.810Z, 42.25
2023-04-10T02:01:29.864Z, 42.29
2023-04-10T02:02:22.861Z, 42.32
2023-04-10T02:03:23.111Z, 42.27
2023-04-10T02:04:22.961Z, 42.26
2023-04-10T02:05:22.778Z, 42.15
2023-04-10T02:06:22.850Z, 42.13
2023-04-10T02:07:22.827Z, 42.17
2023-04-10T02:08:22.865Z, 42.17
2023-04-10T02:09:22.837Z, 42.14
2023-04-10T02:10:22.908Z, 42.16
2023-04-10T02:11:22.883Z, 42.17
2023-04-10T02:12:22.944Z, 42.16
2023-04-10T02:13:22.893Z, 42.11
2023-04-10T02:14:22.920Z, 42.09
2023-04-10T02:15:22.965Z, 42.14
2023-04-10T02:16:23.155Z, 42.07
2023-04-10T02:17:22.991Z, 42.08
2023-04-10T02:18:22.947Z, 42.03
2023-04-10T02:19:22.975Z, 41.97
2023-04-10T02:20:22.944Z, 41.99
2023-04-10T02:21:23.023Z, 41.94
2023-04-10T02:22:23.005Z, 41.90
2023-04-10T02:23:23.012Z, 41.90
2023-04-10T02:24:23.005Z, 41.88
2023-04-10T02:25:23.014Z, 41.83
2023-04-10T02:26:23.026Z, 41.85
2023-04-10T02:27:23.048Z, 41.86
2023-04-10T02:28:23.109Z, 41.83
2023-04-10T02:29:23.093Z, 41.76
2023-04-10T02:30:23.135Z, 41.77
2023-04-10T02:31:23.143Z, 41.72
2023-04-10T02:32:23.152Z, 41.71
2023-04-10T02:33:23.128Z, 41.72
2023-04-10T02:34:23.125Z, 41.73
2023-04-10T02:35:23.125Z, 41.71
2023-04-10T02:36:23.145Z, 41.71
2023-04-10T02:37:23.232Z, 41.63
2023-04-10T02:38:23.200Z, 41.62
2023-04-10T02:39:23.266Z, 41.66
2023-04-10T02:40:23.296Z, 41.64
2023-04-10T02:41:23.234Z, 41.57
2023-04-10T02:42:23.242Z, 41.49
2023-04-10T02:43:23.257Z, 41.46
2023-04-10T02:44:23.311Z, 41.52
2023-04-10T02:45:23.276Z, 41.47
2023-04-10T02:46:23.344Z, 41.42
2023-04-10T02:47:23.345Z, 41.40
2023-04-10T02:48:23.345Z, 41.39
2023-04-10T02:49:23.310Z, 41.42
2023-04-10T02:50:23.347Z, 41.37
2023-04-10T02:51:23.322Z, 41.39
2023-04-10T02:52:23.350Z, 41.33
2023-04-10T02:53:23.343Z, 41.31
2023-04-10T02:54:23.352Z, 41.30
2023-04-10T02:55:23.376Z, 41.28
2023-04-10T02:56:23.379Z, 41.25
2023-04-10T02:57:23.384Z, 41.28
2023-04-10T02:58:23.413Z, 41.25
2023-04-10T02:59:23.482Z, 41.24
2023-04-10T03:00:23.504Z, 41.18
2023-04-10T03:01:23.545Z, 41.18
2023-04-10T03:02:23.662Z, 41.21
2023-04-10T03:03:23.742Z, 41.16
2023-04-10T03:04:23.603Z, 41.17
2023-04-10T03:05:23.528Z, 41.14
2023-04-10T03:06:23.598Z, 41.11
2023-04-10T03:07:23.558Z, 41.12
2023-04-10T03:08:23.557Z, 41.10
2023-04-10T03:09:23.555Z, 41.10
2023-04-10T03:10:23.592Z, 41.09
2023-04-10T03:11:23.602Z, 41.05
2023-04-10T03:12:23.604Z, 41.05
2023-04-10T03:13:23.691Z, 41.04
2023-04-10T03:14:23.650Z, 41.08
2023-04-10T03:15:23.708Z, 41.03
2023-04-10T03:16:23.730Z, 40.95
2023-04-10T03:17:23.687Z, 40.95
2023-04-10T03:18:23.705Z, 40.92
2023-04-10T03:19:23.691Z, 40.94
2023-04-10T03:20:23.741Z, 40.98
2023-04-10T03:21:23.719Z, 40.90
2023-04-10T03:22:23.802Z, 40.86
2023-04-10T03:23:23.789Z, 40.89
2023-04-10T03:24:23.789Z, 40.85
2023-04-10T03:25:23.789Z, 40.86
2023-04-10T03:26:23.785Z, 40.78
2023-04-10T03:27:23.844Z, 40.85
2023-04-10T03:28:23.839Z, 40.83
2023-04-10T03:29:23.913Z, 40.76
2023-04-10T03:30:23.881Z, 40.72
2023-04-10T03:31:23.934Z, 41.24
2023-04-10T03:32:23.896Z, 42.70
2023-04-10T03:33:24.006Z, 43.17
2023-04-10T03:34:23.930Z, 43.28
2023-04-10T03:35:23.978Z, 43.29
2023-04-10T03:36:23.945Z, 43.33
2023-04-10T03:37:23.936Z, 43.31
2023-04-10T03:38:23.936Z, 43.33
2023-04-10T03:39:23.961Z, 43.38
2023-04-10T03:40:23.977Z, 43.39
2023-04-10T03:41:25.443Z, 43.43
2023-04-10T03:42:24.035Z, 43.50
2023-04-10T03:43:24.022Z, 43.56
2023-04-10T03:44:24.080Z, 43.55
2023-04-10T03:45:24.069Z, 43.57
2023-04-10T03:46:24.133Z, 43.62
2023-04-10T03:47:24.159Z, 43.61
2023-04-10T03:48:24.072Z, 43.58
2023-04-10T03:49:24.158Z, 43.56
2023-04-10T03:50:24.112Z, 43.58
2023-04-10T03:51:24.131Z, 43.55
2023-04-10T03:52:24.132Z, 43.54
2023-04-10T03:53:24.162Z, 43.53
2023-04-10T03:54:24.156Z, 43.50
2023-04-10T03:55:24.183Z, 43.49
2023-04-10T03:56:24.207Z, 43.47
2023-04-10T03:57:24.293Z, 43.46
2023-04-10T03:58:24.255Z, 43.45
2023-04-10T03:59:33.996Z, 43.43
2023-04-10T04:00:24.258Z, 43.39
2023-04-10T04:01:24.305Z, 43.21
2023-04-10T04:02:24.376Z, 48.96
2023-04-10T04:03:24.505Z, 55.33
2023-04-10T04:04:24.411Z, 57.44
2023-04-10T04:05:24.304Z, 59.80
2023-04-10T04:06:24.369Z, 67.94
2023-04-10T04:07:24.347Z, 57.77
2023-04-10T04:08:24.393Z, 53.80
2023-04-10T04:09:24.362Z, 54.55
2023-04-10T04:10:24.373Z, 55.97
2023-04-10T04:11:24.361Z, 58.97
2023-04-10T04:12:24.430Z, 68.14
2023-04-10T04:13:24.414Z, 63.98
2023-04-10T04:14:24.418Z, 56.18
2023-04-10T04:15:24.414Z, 54.78
2023-04-10T04:16:24.524Z, 56.13
2023-04-10T04:17:24.520Z, 57.95
2023-04-10T04:18:24.449Z, 59.44
2023-04-10T04:19:24.537Z, 60.65
2023-04-10T04:20:24.504Z, 63.51
2023-04-10T04:21:24.530Z, 65.16
2023-04-10T04:22:24.520Z, 65.22
2023-04-10T04:23:24.566Z, 65.07
2023-04-10T04:24:24.572Z, 64.90
2023-04-10T04:25:24.556Z, 64.54
2023-04-10T04:26:24.556Z, 64.28
2023-04-10T04:27:24.560Z, 64.04
2023-04-10T04:28:24.624Z, 63.53
2023-04-10T04:29:24.592Z, 62.95
2023-04-10T04:30:24.680Z, 62.54
2023-04-10T04:31:24.668Z, 62.04
2023-04-10T04:32:24.756Z, 61.72
2023-04-10T04:33:24.675Z, 61.71
2023-04-10T04:34:24.654Z, 61.36
2023-04-10T04:35:24.722Z, 60.97
2023-04-10T04:36:24.696Z, 60.50
2023-04-10T04:37:24.755Z, 59.99
2023-04-10T04:38:24.720Z, 59.53
2023-04-10T04:39:24.760Z, 59.37
2023-04-10T04:40:24.754Z, 59.50
2023-04-10T04:41:24.747Z, 59.32
2023-04-10T04:42:24.762Z, 59.10
2023-04-10T04:43:24.763Z, 58.79
2023-04-10T04:44:24.843Z, 58.45
2023-04-10T04:45:24.832Z, 58.13
2023-04-10T04:46:25.045Z, 57.73
2023-04-10T04:47:24.881Z, 57.28
2023-04-10T04:48:24.906Z, 56.90
2023-04-10T04:49:24.895Z, 56.57
2023-04-10T04:50:24.930Z, 56.27
2023-04-10T04:51:24.887Z, 56.00
2023-04-10T04:52:24.934Z, 56.20
2023-04-10T04:53:24.914Z, 56.50
2023-04-10T04:54:24.916Z, 56.49
2023-04-10T04:55:24.975Z, 56.31
2023-04-10T04:56:24.944Z, 56.12
2023-04-10T04:57:25.007Z, 55.89
2023-04-10T04:58:25.000Z, 55.70
2023-04-10T04:59:25.027Z, 55.47
2023-04-10T05:00:25.035Z, 55.35
2023-04-10T05:01:25.078Z, 55.36
2023-04-10T05:02:25.190Z, 55.34
2023-04-10T05:03:25.240Z, 55.20
2023-04-10T05:04:25.153Z, 54.92
2023-04-10T05:05:25.042Z, 54.62
2023-04-10T05:06:25.111Z, 54.41
2023-04-10T05:07:25.141Z, 54.09
2023-04-10T05:08:25.161Z, 53.66
2023-04-10T05:09:25.138Z, 53.30
2023-04-10T05:10:25.134Z, 52.98
2023-04-10T05:11:25.136Z, 52.71
2023-04-10T05:12:25.210Z, 52.41
2023-04-10T05:13:25.190Z, 52.19
2023-04-10T05:14:25.179Z, 51.97
2023-04-10T05:15:25.198Z, 51.80
2023-04-10T05:16:25.213Z, 51.61
2023-04-10T05:17:25.246Z, 51.56
2023-04-10T05:18:25.331Z, 52.08
2023-04-10T05:19:25.304Z, 52.14
2023-04-10T05:20:25.292Z, 51.78
2023-04-10T05:21:25.320Z, 51.48
2023-04-10T05:22:25.287Z, 51.26
2023-04-10T05:23:25.309Z, 51.03
2023-04-10T05:24:25.313Z, 50.83
2023-04-10T05:25:25.315Z, 50.71
2023-04-10T05:26:25.328Z, 50.53
2023-04-10T05:27:25.329Z, 50.35
2023-04-10T05:28:25.399Z, 50.22
2023-04-10T05:29:25.373Z, 50.07
2023-04-10T05:30:25.431Z, 50.00
2023-04-10T05:31:25.437Z, 49.81
2023-04-10T05:32:25.458Z, 49.69
2023-04-10T05:33:25.410Z, 49.58
2023-04-10T05:34:25.426Z, 49.43
2023-04-10T05:35:25.417Z, 49.36
2023-04-10T05:36:25.444Z, 49.24
2023-04-10T05:37:25.452Z, 49.12
2023-04-10T05:38:25.505Z, 48.95
2023-04-10T05:39:25.490Z, 48.90
2023-04-10T05:40:25.482Z, 48.79
2023-04-10T05:41:25.506Z, 48.71
2023-04-10T05:42:25.512Z, 48.56
2023-04-10T05:43:25.603Z, 48.48
2023-04-10T05:44:25.576Z, 48.43
2023-04-10T05:45:25.625Z, 48.35
2023-04-10T05:46:25.636Z, 48.26
2023-04-10T05:47:25.701Z, 48.16
2023-04-10T05:48:25.633Z, 48.14
2023-04-10T05:49:25.623Z, 48.00
2023-04-10T05:50:25.678Z, 47.93
2023-04-10T05:51:25.665Z, 47.90
2023-04-10T05:52:25.668Z, 47.83
2023-04-10T05:53:25.708Z, 47.66
2023-04-10T05:54:25.699Z, 47.58
2023-04-10T05:55:25.710Z, 47.52
2023-04-10T05:56:25.696Z, 47.45
2023-04-10T05:57:25.775Z, 47.40
2023-04-10T05:58:25.749Z, 47.38
2023-04-10T05:59:25.766Z, 47.30
2023-04-10T06:00:25.786Z, 47.26
2023-04-10T06:01:25.822Z, 47.19
2023-04-10T06:02:26.016Z, 47.15
2023-04-10T06:03:25.891Z, 47.16
2023-04-10T06:04:25.880Z, 47.07
2023-04-10T06:05:25.995Z, 47.03
2023-04-10T06:06:25.941Z, 46.97
2023-04-10T06:07:25.881Z, 46.88
2023-04-10T06:08:25.873Z, 46.84
2023-04-10T06:09:25.880Z, 46.87
2023-04-10T06:10:25.879Z, 46.73
2023-04-10T06:11:25.964Z, 46.70
2023-04-10T06:12:25.958Z, 46.63
2023-04-10T06:13:25.962Z, 46.63
2023-04-10T06:14:25.949Z, 46.62
2023-04-10T06:15:26.008Z, 46.62
2023-04-10T06:16:26.057Z, 46.53
2023-04-10T06:17:26.057Z, 46.53
2023-04-10T06:18:26.044Z, 46.53
2023-04-10T06:19:26.050Z, 46.49
2023-04-10T06:20:26.024Z, 46.45
2023-04-10T06:21:26.050Z, 46.35
2023-04-10T06:22:26.032Z, 46.35
2023-04-10T06:23:26.037Z, 46.31
2023-04-10T06:24:26.081Z, 46.22
2023-04-10T06:25:26.069Z, 46.17
2023-04-10T06:26:26.145Z, 46.13
2023-04-10T06:27:26.135Z, 46.10
2023-04-10T06:28:26.173Z, 46.02
2023-04-10T06:29:26.171Z, 45.96
2023-04-10T06:30:26.166Z, 45.95
2023-04-10T06:31:26.194Z, 45.89
2023-04-10T06:32:26.240Z, 45.91
2023-04-10T06:33:26.484Z, 45.86
2023-04-10T06:34:26.201Z, 45.86
2023-04-10T06:35:26.272Z, 45.83
2023-04-10T06:36:26.247Z, 45.79
2023-04-10T06:37:26.468Z, 45.72
2023-04-10T06:38:26.287Z, 45.67
2023-04-10T06:39:26.305Z, 45.68
2023-04-10T06:40:26.278Z, 45.63
2023-04-10T06:41:26.289Z, 45.59
2023-04-10T06:42:26.288Z, 45.61
2023-04-10T06:43:26.313Z, 45.56
2023-04-10T06:44:26.332Z, 45.61
2023-04-10T06:45:26.321Z, 45.49
2023-04-10T06:46:26.401Z, 45.48
2023-04-10T06:47:26.386Z, 45.48
2023-04-10T06:48:26.414Z, 45.44
2023-04-10T06:49:26.375Z, 45.39
2023-04-10T06:50:26.406Z, 45.31
2023-04-10T06:51:26.382Z, 45.28
2023-04-10T06:52:26.409Z, 45.26
2023-04-10T06:53:26.493Z, 45.16
2023-04-10T06:54:26.471Z, 45.19
2023-04-10T06:55:26.455Z, 45.24
2023-04-10T06:56:26.462Z, 45.14
2023-04-10T06:57:26.484Z, 45.06
2023-04-10T06:58:26.498Z, 44.99
2023-04-10T06:59:26.502Z, 45.03
2023-04-10T07:00:26.569Z, 45.06
2023-04-10T07:01:26.759Z, 45.02
2023-04-10T07:02:26.881Z, 44.96
2023-04-10T07:03:26.609Z, 44.96
2023-04-10T07:04:26.587Z, 44.93
2023-04-10T07:05:26.611Z, 44.90
2023-04-10T07:06:26.613Z, 44.83
2023-04-10T07:07:26.605Z, 44.84
2023-04-10T07:08:26.697Z, 44.82
2023-04-10T07:09:26.682Z, 44.86
2023-04-10T07:10:26.745Z, 44.79
2023-04-10T07:11:26.683Z, 44.76
2023-04-10T07:12:26.727Z, 44.74
2023-04-10T07:13:26.707Z, 44.71
2023-04-10T07:14:26.780Z, 44.68
2023-04-10T07:15:26.717Z, 44.68
2023-04-10T07:16:26.761Z, 44.64
2023-04-10T07:17:26.760Z, 44.51
2023-04-10T07:18:26.736Z, 44.55
2023-04-10T07:19:26.819Z, 44.49
2023-04-10T07:20:26.810Z, 44.49
2023-04-10T07:21:26.840Z, 44.42
2023-04-10T07:22:26.814Z, 44.42
2023-04-10T07:23:26.863Z, 44.44
2023-04-10T07:24:26.846Z, 44.39
2023-04-10T07:25:26.850Z, 44.37
2023-04-10T07:26:26.841Z, 44.28
2023-04-10T07:27:26.904Z, 44.35
2023-04-10T07:28:26.885Z, 44.30
2023-04-10T07:29:26.888Z, 44.27
2023-04-10T07:30:26.899Z, 44.17
2023-04-10T07:31:26.986Z, 44.18
2023-04-10T07:32:27.291Z, 44.17
2023-04-10T07:33:26.998Z, 44.18
2023-04-10T07:34:27.002Z, 44.16
2023-04-10T07:35:27.002Z, 44.15
2023-04-10T07:36:27.022Z, 44.15
2023-04-10T07:37:27.010Z, 44.12
2023-04-10T07:38:27.009Z, 44.10
2023-04-10T07:39:27.001Z, 44.03
2023-04-10T07:40:27.017Z, 44.02
2023-04-10T07:41:27.077Z, 43.93
2023-04-10T07:42:27.045Z, 43.93
2023-04-10T07:43:27.081Z, 43.93
2023-04-10T07:44:27.075Z, 43.86
2023-04-10T07:45:27.159Z, 43.78
2023-04-10T07:46:27.078Z, 43.80
2023-04-10T07:47:27.196Z, 43.77
2023-04-10T07:48:27.131Z, 43.77
2023-04-10T07:49:27.165Z, 43.80
2023-04-10T07:50:27.177Z, 43.74
2023-04-10T07:51:27.161Z, 43.71
2023-04-10T07:52:27.214Z, 43.72
2023-04-10T07:53:27.203Z, 43.65
2023-04-10T07:54:27.204Z, 43.66
2023-04-10T07:55:27.213Z, 43.61
2023-04-10T07:56:27.220Z, 43.59
2023-04-10T07:57:27.278Z, 43.61
2023-04-10T07:58:27.264Z, 43.60
2023-04-10T07:59:27.300Z, 43.56
2023-04-10T08:00:27.278Z, 43.56
2023-04-10T08:01:27.378Z, 43.56
2023-04-10T08:02:27.491Z, 43.42
2023-04-10T08:03:27.475Z, 43.39
2023-04-10T08:04:27.602Z, 43.46
2023-04-10T08:05:27.363Z, 43.42
2023-04-10T08:06:27.342Z, 43.43
2023-04-10T08:07:27.359Z, 43.37
2023-04-10T08:08:27.378Z, 43.37
2023-04-10T08:09:27.365Z, 43.28
2023-04-10T08:10:27.465Z, 43.25
2023-04-10T08:11:27.453Z, 43.24
2023-04-10T08:12:27.491Z, 43.19
2023-04-10T08:13:27.510Z, 43.17
2023-04-10T08:14:27.468Z, 43.17
2023-04-10T08:15:27.476Z, 43.12
2023-04-10T08:16:27.520Z, 43.10
2023-04-10T08:17:27.533Z, 43.06
2023-04-10T08:18:27.507Z, 43.07
2023-04-10T08:19:27.622Z, 43.02
2023-04-10T08:20:27.582Z, 43.08
2023-04-10T08:21:27.583Z, 42.98
2023-04-10T08:22:27.572Z, 42.97
2023-04-10T08:23:27.579Z, 42.96
2023-04-10T08:24:27.587Z, 42.90
2023-04-10T08:25:27.621Z, 42.93
2023-04-10T08:26:27.613Z, 42.91
2023-04-10T08:27:27.613Z, 42.84
2023-04-10T08:28:27.619Z, 42.86
2023-04-10T08:29:27.648Z, 42.84
2023-04-10T08:30:27.649Z, 42.82
2023-04-10T08:31:28.116Z, 42.81
2023-04-10T08:32:27.715Z, 42.88
2023-04-10T08:33:27.676Z, 42.87
2023-04-10T08:34:27.768Z, 42.87
2023-04-10T08:35:27.704Z, 42.81
2023-04-10T08:36:27.792Z, 42.76
2023-04-10T08:37:27.752Z, 42.83
2023-04-10T08:38:27.861Z, 42.80
2023-04-10T08:39:27.774Z, 42.72
2023-04-10T08:40:27.853Z, 42.64
2023-04-10T08:41:27.826Z, 42.64
2023-04-10T08:42:27.828Z, 42.70
2023-04-10T08:43:27.822Z, 42.67
2023-04-10T08:44:27.840Z, 42.66
2023-04-10T08:45:27.911Z, 42.61
2023-04-10T08:46:27.988Z, 42.63
2023-04-10T08:47:27.949Z, 42.55
2023-04-10T08:48:27.917Z, 42.51
2023-04-10T08:49:27.941Z, 42.51
2023-04-10T08:50:27.916Z, 42.46
2023-04-10T08:51:27.970Z, 42.44
2023-04-10T08:52:27.976Z, 42.49
2023-04-10T08:53:27.957Z, 42.42
2023-04-10T08:54:27.956Z, 42.40
2023-04-10T08:55:27.956Z, 42.39
2023-04-10T08:56:28.026Z, 42.46
2023-04-10T08:57:28.020Z, 42.41
2023-04-10T08:58:28.034Z, 42.42
2023-04-10T08:59:28.024Z, 42.39
2023-04-10T09:00:28.038Z, 42.41
2023-04-10T09:01:28.081Z, 42.33
2023-04-10T09:02:28.299Z, 42.31
2023-04-10T09:03:28.273Z, 42.28
2023-04-10T09:04:28.167Z, 42.29
2023-04-10T09:05:28.089Z, 42.27
2023-04-10T09:06:28.083Z, 42.21
2023-04-10T09:07:28.161Z, 42.21
2023-04-10T09:08:28.141Z, 42.20
2023-04-10T09:09:28.215Z, 42.16
2023-04-10T09:10:28.175Z, 42.11
2023-04-10T09:11:28.203Z, 42.07
2023-04-10T09:12:28.182Z, 42.08
2023-04-10T09:13:28.243Z, 42.03
2023-04-10T09:14:28.218Z, 42.04
2023-04-10T09:15:28.216Z, 42.03
2023-04-10T09:16:28.294Z, 42.02
2023-04-10T09:17:28.254Z, 41.99
2023-04-10T09:18:28.292Z, 42.00
2023-04-10T09:19:28.264Z, 42.01
2023-04-10T09:20:28.360Z, 42.00
2023-04-10T09:21:28.302Z, 41.96
2023-04-10T09:22:28.330Z, 41.97
2023-04-10T09:23:28.320Z, 41.99
2023-04-10T09:24:28.384Z, 41.97
2023-04-10T09:25:28.332Z, 41.91
2023-04-10T09:26:28.388Z, 41.86
2023-04-10T09:27:28.362Z, 41.88
2023-04-10T09:28:28.420Z, 41.83
2023-04-10T09:29:28.417Z, 41.80
2023-04-10T09:30:28.462Z, 41.81
2023-04-10T09:31:28.476Z, 41.74
2023-04-10T09:32:28.452Z, 41.70
2023-04-10T09:33:28.433Z, 41.68
2023-04-10T09:34:28.454Z, 41.66
2023-04-10T09:35:28.479Z, 41.64
2023-04-10T09:36:28.489Z, 41.63
2023-04-10T09:37:28.490Z, 41.61
2023-04-10T09:38:28.495Z, 41.62
2023-04-10T09:39:28.573Z, 41.61
2023-04-10T09:40:28.549Z, 41.64
2023-04-10T09:41:28.628Z, 41.61
2023-04-10T09:42:28.590Z, 41.59
2023-04-10T09:43:28.584Z, 41.58
2023-04-10T09:44:28.584Z, 41.53
2023-04-10T09:45:28.583Z, 41.54
2023-04-10T09:46:28.730Z, 41.56
2023-04-10T09:47:28.614Z, 41.52
2023-04-10T09:48:28.671Z, 41.47
2023-04-10T09:49:28.691Z, 41.46
2023-04-10T09:50:28.661Z, 41.45
2023-04-10T09:51:28.650Z, 41.40
2023-04-10T09:52:28.716Z, 41.42
2023-04-10T09:53:28.689Z, 41.31
2023-04-10T09:54:28.754Z, 41.30
2023-04-10T09:55:28.730Z, 41.29
2023-04-10T09:56:28.750Z, 41.25
2023-04-10T09:57:28.730Z, 41.28
2023-04-10T09:58:28.739Z, 41.25
2023-04-10T09:59:28.758Z, 41.24
2023-04-10T10:00:28.773Z, 41.21
2023-04-10T10:01:28.832Z, 41.80
2023-04-10T10:02:28.949Z, 43.19
2023-04-10T10:03:28.988Z, 43.63
2023-04-10T10:04:28.898Z, 43.68
2023-04-10T10:05:28.842Z, 43.62
2023-04-10T10:06:28.918Z, 43.56
2023-04-10T10:07:28.870Z, 43.53
2023-04-10T10:08:28.931Z, 43.51
2023-04-10T10:09:29.507Z, 43.37
2023-04-10T10:10:28.903Z, 43.13
2023-04-10T10:11:28.892Z, 42.83
2023-04-10T10:12:28.911Z, 42.70
2023-04-10T10:13:28.994Z, 42.57
2023-04-10T10:14:28.974Z, 42.47
2023-04-10T10:15:29.017Z, 42.34
2023-04-10T10:16:29.042Z, 42.21
2023-04-10T10:17:29.128Z, 42.14
2023-04-10T10:18:29.024Z, 42.05
2023-04-10T10:19:29.014Z, 42.00
2023-04-10T10:20:29.021Z, 41.89
2023-04-10T10:21:29.066Z, 41.83
2023-04-10T10:22:29.059Z, 41.77
2023-04-10T10:23:29.070Z, 41.70
2023-04-10T10:24:29.079Z, 41.60
2023-04-10T10:25:29.103Z, 41.55
2023-04-10T10:26:29.176Z, 41.48
2023-04-10T10:27:29.146Z, 41.41
2023-04-10T10:28:29.131Z, 41.35
2023-04-10T10:29:29.151Z, 41.29
2023-04-10T10:30:30.408Z, 41.20
2023-04-10T10:31:29.205Z, 41.04
2023-04-10T10:32:29.188Z, 40.83
2023-04-10T10:33:29.224Z, 40.78
2023-04-10T10:34:29.219Z, 40.75
2023-04-10T10:35:30.115Z, 40.51
2023-04-10T10:36:29.303Z, 40.29
2023-04-10T10:37:29.293Z, 40.12
2023-04-10T10:38:29.270Z, 39.98
2023-04-10T10:39:29.311Z, 39.86
2023-04-10T10:40:29.300Z, 39.74
2023-04-10T10:41:29.297Z, 39.65
2023-04-10T10:42:29.305Z, 39.60
2023-04-10T10:43:29.313Z, 39.52
2023-04-10T10:44:29.389Z, 39.48
2023-04-10T10:45:29.390Z, 39.42
2023-04-10T10:46:29.377Z, 39.35
2023-04-10T10:47:29.413Z, 39.29
2023-04-10T10:48:29.386Z, 39.21
2023-04-10T10:49:29.395Z, 39.16
2023-04-10T10:50:29.414Z, 39.18
2023-04-10T10:51:29.500Z, 39.15
2023-04-10T10:52:29.462Z, 39.09
2023-04-10T10:53:29.532Z, 39.05
2023-04-10T10:54:29.502Z, 39.01
2023-04-10T10:55:29.535Z, 38.94
2023-04-10T10:56:29.515Z, 38.92
2023-04-10T10:57:29.514Z, 38.92
2023-04-10T10:58:29.509Z, 38.85
2023-04-10T10:59:29.514Z, 38.84
2023-04-10T11:00:29.529Z, 38.84
2023-04-10T11:01:29.581Z, 38.78
2023-04-10T11:02:29.727Z, 38.75
2023-04-10T11:03:29.797Z, 38.66
2023-04-10T11:04:29.646Z, 38.67
2023-04-10T11:05:29.631Z, 38.63
2023-04-10T11:06:29.626Z, 38.58
2023-04-10T11:07:29.612Z, 38.57
2023-04-10T11:08:29.624Z, 38.56
2023-04-10T11:09:29.637Z, 38.54
2023-04-10T11:11:29.650Z, 38.49
2023-04-10T11:12:29.671Z, 38.52
2023-04-10T11:13:29.745Z, 38.45
2023-04-10T11:14:29.734Z, 38.48
2023-04-10T11:15:29.737Z, 38.45
2023-04-10T11:16:29.775Z, 38.48
2023-04-10T11:17:29.761Z, 38.38
2023-04-10T11:18:29.764Z, 38.37
2023-04-10T11:19:29.785Z, 38.37
2023-04-10T11:20:29.860Z, 38.37
2023-04-10T11:21:29.859Z, 38.33
2023-04-10T11:22:29.846Z, 38.29
2023-04-10T11:23:29.835Z, 38.28
2023-04-10T11:24:29.835Z, 38.26
2023-04-10T11:25:29.842Z, 38.24
2023-04-10T11:26:29.854Z, 38.24
2023-04-10T11:27:29.950Z, 38.22
2023-04-10T11:28:29.910Z, 38.20
2023-04-10T11:29:29.910Z, 38.20
2023-04-10T11:30:29.948Z, 38.18
2023-04-10T11:31:29.980Z, 38.21
2023-04-10T11:32:29.957Z, 38.24
2023-04-10T11:33:29.946Z, 38.24
2023-04-10T11:34:29.987Z, 38.20
2023-04-10T11:35:30.118Z, 38.18
2023-04-10T11:36:29.974Z, 38.19
2023-04-10T11:37:29.978Z, 38.15
2023-04-10T11:38:29.996Z, 38.09
2023-04-10T11:39:30.008Z, 38.07
2023-04-10T11:40:30.019Z, 38.03
2023-04-10T11:41:30.038Z, 37.99
2023-04-10T11:42:30.044Z, 38.03
2023-04-10T11:43:30.114Z, 38.05
2023-04-10T11:44:30.069Z, 37.98
2023-04-10T11:45:30.122Z, 37.98
2023-04-10T11:46:30.215Z, 37.97
2023-04-10T11:47:30.199Z, 37.92
2023-04-10T11:48:30.142Z, 37.95
2023-04-10T11:49:30.188Z, 37.88
2023-04-10T11:50:30.155Z, 37.90
2023-04-10T11:51:30.194Z, 37.91
2023-04-10T11:52:30.188Z, 37.91
2023-04-10T11:53:30.386Z, 37.85
2023-04-10T11:54:30.212Z, 37.82
2023-04-10T11:55:30.179Z, 37.82
2023-04-10T11:56:30.264Z, 37.83
2023-04-10T11:57:30.228Z, 37.81
2023-04-10T11:58:30.278Z, 37.83
2023-04-10T11:59:30.264Z, 37.80
2023-04-10T12:00:30.263Z, 37.86
2023-04-10T12:01:30.268Z, 37.82
2023-04-10T12:02:30.375Z, 37.76
2023-04-10T12:03:30.637Z, 37.73
2023-04-10T12:04:30.457Z, 37.76
2023-04-10T12:05:30.339Z, 37.77
2023-04-10T12:06:30.346Z, 37.75
2023-04-10T12:07:32.034Z, 37.73
2023-04-10T12:08:30.369Z, 37.69
2023-04-10T12:09:30.401Z, 37.66
2023-04-10T12:10:30.406Z, 37.64
2023-04-10T12:11:30.404Z, 37.68
2023-04-10T12:12:30.409Z, 37.65
2023-04-10T12:13:30.416Z, 37.60
2023-04-10T12:14:30.498Z, 37.56
2023-04-10T12:15:30.501Z, 37.57
2023-04-10T12:16:30.489Z, 37.57
2023-04-10T12:17:30.513Z, 37.57
2023-04-10T12:18:30.484Z, 37.48
2023-04-10T12:19:30.493Z, 37.54
2023-04-10T12:20:30.527Z, 37.52
2023-04-10T12:21:30.512Z, 37.53
2023-04-10T12:22:30.524Z, 37.56
2023-04-10T12:23:30.600Z, 37.45
2023-04-10T12:24:30.580Z, 37.46
2023-04-10T12:25:30.605Z, 37.51
2023-04-10T12:26:30.582Z, 37.54
2023-04-10T12:27:30.634Z, 37.56
2023-04-10T12:28:30.613Z, 37.49
2023-04-10T12:29:30.692Z, 37.47